createdAt,value
2019-03-28T00:00:39.909Z,6.20
2019-03-28T00:03:25.661Z,6.10
2019-03-28T00:06:11.550Z,6.10
2019-03-28T00:08:56.846Z,6.10
2019-03-28T00:11:42.238Z,6.10
2019-03-28T00:14:27.862Z,6.10
2019-03-28T00:17:13.955Z,6.00
2019-03-28T00:19:59.628Z,5.90
2019-03-28T00:22:51.444Z,6.00
2019-03-28T00:25:36.822Z,5.90
2019-03-28T00:28:22.525Z,5.90
2019-03-28T00:31:08.529Z,5.80
2019-03-28T00:33:55.168Z,5.80
2019-03-28T00:36:40.598Z,5.90
2019-03-28T00:39:25.649Z,5.80
2019-03-28T00:42:11.039Z,5.80
2019-03-28T00:44:56.719Z,5.70
2019-03-28T00:47:42.551Z,5.70
2019-03-28T00:50:28.231Z,5.70
2019-03-28T00:53:14.052Z,5.70
2019-03-28T00:55:59.482Z,5.60
2019-03-28T00:58:45.393Z,5.60
2019-03-28T01:01:31.145Z,5.70
2019-03-28T01:04:16.726Z,5.60
2019-03-28T01:07:02.173Z,5.60
2019-03-28T01:09:47.982Z,5.60
2019-03-28T01:12:33.902Z,5.60
2019-03-28T01:15:19.638Z,5.60
2019-03-28T01:18:05.420Z,5.60
2019-03-28T01:20:51.225Z,5.60
2019-03-28T01:23:37.110Z,5.60
2019-03-28T01:26:23.602Z,5.60
2019-03-28T01:29:09.286Z,5.60
2019-03-28T01:31:55.186Z,5.60
2019-03-28T01:34:40.622Z,5.60
2019-03-28T01:37:26.215Z,5.60
2019-03-28T01:40:11.884Z,5.60
2019-03-28T01:42:57.548Z,5.60
2019-03-28T01:45:42.882Z,5.70
2019-03-28T01:48:28.494Z,5.70
2019-03-28T01:51:14.169Z,5.70
2019-03-28T01:53:59.746Z,5.60
2019-03-28T01:56:45.474Z,5.70
2019-03-28T01:59:31.521Z,5.70
2019-03-28T02:02:17.189Z,5.70
2019-03-28T02:05:02.754Z,5.70
2019-03-28T02:07:48.050Z,5.70
2019-03-28T02:10:33.654Z,5.70
2019-03-28T02:13:19.030Z,5.60
2019-03-28T02:16:04.154Z,5.60
2019-03-28T02:18:49.645Z,5.60
2019-03-28T02:21:35.135Z,5.60
2019-03-28T02:24:20.878Z,5.60
2019-03-28T02:27:06.071Z,5.60
2019-03-28T02:29:51.619Z,5.50
2019-03-28T02:32:37.200Z,5.60
2019-03-28T02:35:22.855Z,5.60
2019-03-28T02:38:08.790Z,5.60
2019-03-28T02:40:54.541Z,5.60
2019-03-28T02:43:39.923Z,5.60
2019-03-28T02:46:25.287Z,5.50
2019-03-28T02:49:11.327Z,5.60
2019-03-28T02:51:57.042Z,5.50
2019-03-28T02:54:42.539Z,5.50
2019-03-28T02:57:41.235Z,5.60
2019-03-28T03:00:15.652Z,5.50
2019-03-28T03:03:01.190Z,5.50
2019-03-28T03:05:47.076Z,5.50
2019-03-28T03:08:33.027Z,5.50
2019-03-28T03:11:19.802Z,5.50
2019-03-28T03:14:05.824Z,5.50
2019-03-28T03:16:51.439Z,5.50
2019-03-28T03:19:36.803Z,5.40
2019-03-28T03:22:22.574Z,5.50
2019-03-28T03:25:07.932Z,5.50
2019-03-28T03:27:58.553Z,5.50
2019-03-28T03:30:40.884Z,5.50
2019-03-28T03:33:26.824Z,5.50
2019-03-28T03:36:12.295Z,5.50
2019-03-28T03:38:58.038Z,5.50
2019-03-28T03:41:44.817Z,5.50
2019-03-28T03:44:30.381Z,5.50
2019-03-28T03:47:16.647Z,5.50
2019-03-28T03:50:02.533Z,5.50
2019-03-28T03:52:47.831Z,5.50
2019-03-28T03:55:34.057Z,5.50
2019-03-28T03:58:20.238Z,5.60
2019-03-28T04:01:05.759Z,5.60
2019-03-28T04:03:51.399Z,5.60
2019-03-28T04:06:36.950Z,5.60
2019-03-28T04:09:22.012Z,5.70
2019-03-28T04:12:07.594Z,5.70
2019-03-28T04:14:53.121Z,5.70
2019-03-28T04:17:38.494Z,5.80
2019-03-28T04:20:25.014Z,5.70
2019-03-28T04:23:11.124Z,5.80
2019-03-28T04:25:57.066Z,5.80
2019-03-28T04:28:42.279Z,5.70
2019-03-28T04:31:28.318Z,5.70
2019-03-28T04:34:13.788Z,5.70
2019-03-28T04:36:59.314Z,5.60
2019-03-28T04:39:44.943Z,5.60
2019-03-28T04:42:30.111Z,5.60
2019-03-28T04:45:15.826Z,5.50
2019-03-28T04:48:01.600Z,5.50
2019-03-28T04:50:47.654Z,5.60
2019-03-28T04:53:33.122Z,5.50
2019-03-28T04:56:18.807Z,5.60
2019-03-28T04:59:03.858Z,5.50
2019-03-28T05:02:02.527Z,5.50
2019-03-28T05:04:37.098Z,5.50
2019-03-28T05:07:22.671Z,5.50
2019-03-28T05:10:08.282Z,5.50
2019-03-28T05:12:54.116Z,5.50
2019-03-28T05:15:39.299Z,5.50
2019-03-28T05:18:25.158Z,5.50
2019-03-28T05:21:10.930Z,5.50
2019-03-28T05:23:56.136Z,5.50
2019-03-28T05:26:42.123Z,5.50
2019-03-28T05:29:27.872Z,5.50
2019-03-28T05:32:13.949Z,5.50
2019-03-28T05:35:00.232Z,5.50
2019-03-28T05:37:46.230Z,5.50
2019-03-28T05:40:32.128Z,5.60
2019-03-28T05:43:18.199Z,5.60
2019-03-28T05:46:03.598Z,5.60
2019-03-28T05:48:49.190Z,5.60
2019-03-28T05:51:34.618Z,5.70
2019-03-28T05:54:20.393Z,5.70
2019-03-28T05:57:05.718Z,5.70
2019-03-28T05:59:51.385Z,5.70
2019-03-28T06:02:36.774Z,5.70
2019-03-28T06:05:22.402Z,5.70
2019-03-28T06:08:08.693Z,5.70
2019-03-28T06:10:54.105Z,5.70
2019-03-28T06:13:39.750Z,5.70
2019-03-28T06:16:25.314Z,5.80
2019-03-28T06:19:10.658Z,5.80
2019-03-28T06:21:56.364Z,5.80
2019-03-28T06:24:41.938Z,5.80
2019-03-28T06:27:28.032Z,5.80
2019-03-28T06:30:13.602Z,5.80
2019-03-28T06:32:59.237Z,5.90
2019-03-28T06:35:45.023Z,6.00
2019-03-28T06:38:30.665Z,6.00
2019-03-28T06:41:16.380Z,6.10
2019-03-28T06:44:01.690Z,6.10
2019-03-28T06:46:47.392Z,6.20
2019-03-28T06:49:33.048Z,6.30
2019-03-28T06:52:18.850Z,6.40
2019-03-28T06:55:04.292Z,6.40
2019-03-28T06:57:49.672Z,6.40
2019-03-28T07:00:35.764Z,6.50
2019-03-28T07:03:21.359Z,6.60
2019-03-28T07:06:07.110Z,6.50
2019-03-28T07:08:52.790Z,6.50
2019-03-28T07:11:38.428Z,6.60
2019-03-28T07:14:23.857Z,6.60
2019-03-28T07:17:09.742Z,6.60
2019-03-28T07:19:55.552Z,6.70
2019-03-28T07:22:41.283Z,6.60
2019-03-28T07:25:26.964Z,6.70
2019-03-28T07:28:12.339Z,6.70
2019-03-28T07:30:57.793Z,6.80
2019-03-28T07:33:43.585Z,7.00
2019-03-28T07:36:29.178Z,7.20
2019-03-28T07:39:14.626Z,7.20
2019-03-28T07:42:00.120Z,7.30
2019-03-28T07:44:45.843Z,7.40
2019-03-28T07:47:31.495Z,7.50
2019-03-28T07:50:17.048Z,7.70
2019-03-28T07:53:02.751Z,7.80
2019-03-28T07:55:48.221Z,7.70
2019-03-28T07:58:33.871Z,7.90
2019-03-28T08:01:18.962Z,8.00
2019-03-28T08:04:04.510Z,8.30
2019-03-28T08:06:50.459Z,8.50
2019-03-28T08:09:37.141Z,8.80
2019-03-28T08:12:23.426Z,9.00
2019-03-28T08:15:09.166Z,9.30
2019-03-28T08:17:54.975Z,9.80
2019-03-28T08:20:41.114Z,10.60
2019-03-28T08:23:26.246Z,11.10
2019-03-28T08:26:11.982Z,11.30
2019-03-28T08:28:57.478Z,11.80
2019-03-28T08:31:44.686Z,11.90
2019-03-28T08:34:31.442Z,12.00
2019-03-28T08:37:17.265Z,11.90
2019-03-28T08:40:03.134Z,11.50
2019-03-28T08:42:48.913Z,11.20
2019-03-28T08:45:34.841Z,11.20
2019-03-28T08:48:20.683Z,11.30
2019-03-28T08:51:05.988Z,11.50
2019-03-28T08:53:51.732Z,11.70
2019-03-28T08:56:37.354Z,11.90
2019-03-28T08:59:23.395Z,12.30
2019-03-28T09:02:09.135Z,12.80
2019-03-28T09:04:54.858Z,13.40
2019-03-28T09:07:40.465Z,13.70
2019-03-28T09:10:26.345Z,13.10
2019-03-28T09:13:11.711Z,13.10
2019-03-28T09:15:56.847Z,13.30
2019-03-28T09:18:42.842Z,13.30
2019-03-28T09:21:28.513Z,13.10
2019-03-28T09:24:14.322Z,13.00
2019-03-28T09:26:59.680Z,12.80
2019-03-28T09:29:45.446Z,12.60
2019-03-28T09:32:30.821Z,12.40
2019-03-28T09:35:18.498Z,12.50
2019-03-28T09:38:04.326Z,13.00
2019-03-28T09:40:49.598Z,13.60
2019-03-28T09:43:34.918Z,13.90
2019-03-28T09:46:21.052Z,14.00
2019-03-28T09:49:07.139Z,13.80
2019-03-28T09:51:52.511Z,13.40
2019-03-28T09:54:38.493Z,13.20
2019-03-28T09:57:24.027Z,13.30
2019-03-28T10:00:09.705Z,13.30
2019-03-28T10:02:55.119Z,13.20
2019-03-28T10:05:40.199Z,13.40
2019-03-28T10:08:25.823Z,13.40
2019-03-28T10:11:11.363Z,13.50
2019-03-28T10:13:57.014Z,13.80
2019-03-28T10:16:42.187Z,14.40
2019-03-28T10:19:28.266Z,15.40
2019-03-28T10:22:13.821Z,16.80
2019-03-28T10:25:00.050Z,17.70
2019-03-28T10:27:45.714Z,18.10
2019-03-28T10:30:37.592Z,18.50
2019-03-28T10:33:24.578Z,18.80
2019-03-28T10:36:10.623Z,19.30
2019-03-28T10:38:56.206Z,19.10
2019-03-28T10:41:41.987Z,18.40
2019-03-28T10:44:27.454Z,18.50
2019-03-28T10:47:13.234Z,18.80
2019-03-28T10:49:58.986Z,18.50
2019-03-28T10:52:44.585Z,18.00
2019-03-28T10:55:30.270Z,18.30
2019-03-28T10:58:19.691Z,17.80
2019-03-28T11:01:03.102Z,18.30
2019-03-28T11:03:48.595Z,18.30
2019-03-28T11:06:33.995Z,17.70
2019-03-28T11:09:19.306Z,17.10
2019-03-28T11:12:04.771Z,16.70
2019-03-28T11:14:50.740Z,16.00
2019-03-28T11:17:36.525Z,15.60
2019-03-28T11:20:21.975Z,15.20
2019-03-28T11:23:07.358Z,14.90
2019-03-28T11:25:53.554Z,14.70
2019-03-28T11:28:39.083Z,14.60
2019-03-28T11:31:24.803Z,14.70
2019-03-28T11:34:10.786Z,15.00
2019-03-28T11:36:56.088Z,15.10
2019-03-28T11:39:41.882Z,15.10
2019-03-28T11:42:27.834Z,14.80
2019-03-28T11:45:13.603Z,14.70
2019-03-28T11:47:59.178Z,15.00
2019-03-28T11:50:44.442Z,15.30
2019-03-28T11:53:29.630Z,14.70
2019-03-28T11:56:15.290Z,14.70
2019-03-28T11:59:04.308Z,14.20
2019-03-28T12:01:59.386Z,14.00
2019-03-28T12:04:38.627Z,13.80
2019-03-28T12:07:23.149Z,13.60
2019-03-28T12:10:08.873Z,13.40
2019-03-28T12:12:54.638Z,13.40
2019-03-28T12:15:39.983Z,13.50
2019-03-28T12:18:25.529Z,14.10
2019-03-28T12:21:10.950Z,14.50
2019-03-28T12:23:56.370Z,14.60
2019-03-28T12:26:42.343Z,14.70
2019-03-28T12:29:27.935Z,14.80
2019-03-28T12:32:14.510Z,14.50
2019-03-28T12:35:00.727Z,14.10
2019-03-28T12:37:46.299Z,14.10
2019-03-28T12:40:31.674Z,14.40
2019-03-28T12:43:17.218Z,14.60
2019-03-28T12:46:02.502Z,14.70
2019-03-28T12:48:47.851Z,14.70
2019-03-28T12:51:33.975Z,15.20
2019-03-28T12:54:19.157Z,15.60
2019-03-28T12:57:04.962Z,15.30
2019-03-28T12:59:53.429Z,15.10
2019-03-28T13:02:38.321Z,14.90
2019-03-28T13:05:23.938Z,14.80
2019-03-28T13:08:09.518Z,14.50
2019-03-28T13:10:55.254Z,14.20
2019-03-28T13:13:40.927Z,13.90
2019-03-28T13:16:26.310Z,14.00
2019-03-28T13:19:11.610Z,14.20
2019-03-28T13:21:57.171Z,14.20
2019-03-28T13:24:42.639Z,13.90
2019-03-28T13:27:28.919Z,13.90
2019-03-28T13:30:14.492Z,13.80
2019-03-28T13:32:59.966Z,13.90
2019-03-28T13:35:45.950Z,14.10
2019-03-28T13:38:31.843Z,14.30
2019-03-28T13:41:17.551Z,14.30
2019-03-28T13:44:03.698Z,14.30
2019-03-28T13:46:49.023Z,14.10
2019-03-28T13:49:34.778Z,13.90
2019-03-28T13:52:20.122Z,13.70
2019-03-28T13:55:05.666Z,13.60
2019-03-28T13:57:52.368Z,13.60
2019-03-28T14:00:38.156Z,13.50
2019-03-28T14:03:23.593Z,13.40
2019-03-28T14:06:09.478Z,13.40
2019-03-28T14:08:55.218Z,13.50
2019-03-28T14:11:40.756Z,13.50
2019-03-28T14:14:26.106Z,13.60
2019-03-28T14:17:11.562Z,13.50
2019-03-28T14:19:57.823Z,13.60
2019-03-28T14:22:43.194Z,13.60
2019-03-28T14:25:28.486Z,13.30
2019-03-28T14:28:14.158Z,13.20
2019-03-28T14:31:00.997Z,12.90
2019-03-28T14:33:46.626Z,12.70
2019-03-28T14:36:31.935Z,12.60
2019-03-28T14:39:17.351Z,12.50
2019-03-28T14:42:02.671Z,12.30
2019-03-28T14:44:47.938Z,12.20
2019-03-28T14:47:33.640Z,12.20
2019-03-28T14:50:30.488Z,12.10
2019-03-28T14:53:16.398Z,12.10
2019-03-28T14:56:01.974Z,12.00
2019-03-28T14:58:47.406Z,11.90
2019-03-28T15:01:33.234Z,12.00
2019-03-28T15:04:18.719Z,12.00
2019-03-28T15:07:07.180Z,12.10
2019-03-28T15:09:51.521Z,12.10
2019-03-28T15:12:37.892Z,12.30
2019-03-28T15:15:23.327Z,12.30
2019-03-28T15:18:08.690Z,12.40
2019-03-28T15:20:54.414Z,12.50
2019-03-28T15:23:39.905Z,12.50
2019-03-28T15:26:25.160Z,12.50
2019-03-28T15:29:10.766Z,12.50
2019-03-28T15:31:56.126Z,12.30
2019-03-28T15:34:41.602Z,12.20
2019-03-28T15:37:27.355Z,12.20
2019-03-28T15:40:12.757Z,12.00
2019-03-28T15:42:58.718Z,12.00
2019-03-28T15:45:44.118Z,12.20
2019-03-28T15:48:30.066Z,12.20
2019-03-28T15:51:15.490Z,12.30
2019-03-28T15:54:00.598Z,12.40
2019-03-28T15:56:45.954Z,12.90
2019-03-28T15:59:31.220Z,13.30
2019-03-28T16:02:16.312Z,13.40
2019-03-28T16:05:01.586Z,13.80
2019-03-28T16:07:47.632Z,13.70
2019-03-28T16:10:33.351Z,13.40
2019-03-28T16:13:18.820Z,13.00
2019-03-28T16:16:04.266Z,12.70
2019-03-28T16:18:49.666Z,12.30
2019-03-28T16:21:34.986Z,11.90
2019-03-28T16:24:20.431Z,11.50
2019-03-28T16:27:06.114Z,11.40
2019-03-28T16:29:54.324Z,11.20
2019-03-28T16:32:39.587Z,11.20
2019-03-28T16:35:24.987Z,11.10
2019-03-28T16:38:10.769Z,11.20
2019-03-28T16:40:57.775Z,11.20
2019-03-28T16:43:43.426Z,11.20
2019-03-28T16:46:29.008Z,11.20
2019-03-28T16:49:14.990Z,11.10
2019-03-28T16:52:00.139Z,11.00
2019-03-28T16:54:45.835Z,10.90
2019-03-28T16:57:30.943Z,10.80
2019-03-28T17:00:16.729Z,10.90
2019-03-28T17:03:02.947Z,11.20
2019-03-28T17:05:48.382Z,11.40
2019-03-28T17:08:33.870Z,11.40
2019-03-28T17:11:19.902Z,11.20
2019-03-28T17:14:05.381Z,10.80
2019-03-28T17:16:50.986Z,10.60
2019-03-28T17:19:36.938Z,10.50
2019-03-28T17:22:23.270Z,10.40
2019-03-28T17:25:08.658Z,10.30
2019-03-28T17:27:54.602Z,10.20
2019-03-28T17:30:40.302Z,10.10
2019-03-28T17:33:25.473Z,10.10
2019-03-28T17:36:11.002Z,10.10
2019-03-28T17:38:56.702Z,10.00
2019-03-28T17:41:42.139Z,10.00
2019-03-28T17:44:27.414Z,10.00
2019-03-28T17:47:12.494Z,9.90
2019-03-28T17:49:57.955Z,9.90
2019-03-28T17:52:43.305Z,9.90
2019-03-28T17:55:29.761Z,9.80
2019-03-28T17:58:15.918Z,9.80
2019-03-28T18:01:01.699Z,9.70
2019-03-28T18:03:47.226Z,9.70
2019-03-28T18:06:32.672Z,9.60
2019-03-28T18:09:18.330Z,9.60
2019-03-28T18:12:03.934Z,9.60
2019-03-28T18:14:49.699Z,9.60
2019-03-28T18:17:35.601Z,9.60
2019-03-28T18:20:21.086Z,9.50
2019-03-28T18:23:06.427Z,9.50
2019-03-28T18:25:52.470Z,9.50
2019-03-28T18:28:38.379Z,9.40
2019-03-28T18:31:23.854Z,9.30
2019-03-28T18:34:12.155Z,9.20
2019-03-28T18:36:56.739Z,9.10
2019-03-28T18:39:42.421Z,9.00
2019-03-28T18:42:27.949Z,8.90
2019-03-28T18:45:13.474Z,8.70
2019-03-28T18:47:59.166Z,8.60
2019-03-28T18:50:44.938Z,8.50
2019-03-28T18:53:30.402Z,8.40
2019-03-28T18:56:15.778Z,8.30
2019-03-28T18:59:01.366Z,8.30
2019-03-28T19:01:46.982Z,8.10
2019-03-28T19:04:32.246Z,8.00
2019-03-28T19:07:18.080Z,7.90
2019-03-28T19:10:03.438Z,7.80
2019-03-28T19:12:48.733Z,7.70
2019-03-28T19:15:34.155Z,7.60
2019-03-28T19:18:19.497Z,7.50
2019-03-28T19:21:05.024Z,7.40
2019-03-28T19:23:50.655Z,7.40
2019-03-28T19:26:35.854Z,7.40
2019-03-28T19:29:21.514Z,7.30
2019-03-28T19:32:07.293Z,7.40
2019-03-28T19:34:52.919Z,7.40
2019-03-28T19:37:39.662Z,7.50
2019-03-28T19:40:25.149Z,7.50
2019-03-28T19:43:20.406Z,7.60
2019-03-28T19:45:58.242Z,7.80
2019-03-28T19:48:43.460Z,7.90
2019-03-28T19:51:29.034Z,8.10
2019-03-28T19:54:14.730Z,8.20
2019-03-28T19:57:00.697Z,8.30
2019-03-28T19:59:46.198Z,8.40
2019-03-28T20:02:31.707Z,8.40
2019-03-28T20:05:17.333Z,8.40
2019-03-28T20:08:14.893Z,8.50
2019-03-28T20:10:50.243Z,8.50
2019-03-28T20:13:35.542Z,8.50
2019-03-28T20:16:21.266Z,8.60
2019-03-28T20:19:07.251Z,8.60
2019-03-28T20:21:52.824Z,8.60
2019-03-28T20:24:38.710Z,8.60
2019-03-28T20:27:24.082Z,8.60
2019-03-28T20:30:09.864Z,8.60
2019-03-28T20:32:55.232Z,8.60
2019-03-28T20:35:41.114Z,8.50
2019-03-28T20:38:26.527Z,8.40
2019-03-28T20:41:11.958Z,8.40
2019-03-28T20:43:57.738Z,8.30
2019-03-28T20:46:43.745Z,8.30
2019-03-28T20:49:29.302Z,8.30
2019-03-28T20:52:14.370Z,8.30
2019-03-28T20:54:59.722Z,8.40
2019-03-28T20:57:45.952Z,8.40
2019-03-28T21:00:36.004Z,8.40
2019-03-28T21:03:21.363Z,8.50
2019-03-28T21:06:15.136Z,8.50
2019-03-28T21:08:54.575Z,8.50
2019-03-28T21:11:40.338Z,8.60
2019-03-28T21:14:25.519Z,8.50
2019-03-28T21:17:11.014Z,8.50
2019-03-28T21:19:56.901Z,8.50
2019-03-28T21:22:43.067Z,8.50
2019-03-28T21:25:29.770Z,8.50
2019-03-28T21:28:15.651Z,8.40
2019-03-28T21:31:01.675Z,8.40
2019-03-28T21:33:47.413Z,8.40
2019-03-28T21:36:32.883Z,8.40
2019-03-28T21:39:18.282Z,8.40
2019-03-28T21:42:06.960Z,8.40
2019-03-28T21:44:51.176Z,8.40
2019-03-28T21:47:36.846Z,8.40
2019-03-28T21:50:22.235Z,8.40
2019-03-28T21:53:08.082Z,8.40
2019-03-28T21:55:55.563Z,8.40
2019-03-28T21:58:40.923Z,8.40
2019-03-28T22:01:26.452Z,8.40
2019-03-28T22:04:11.747Z,8.40
2019-03-28T22:06:57.657Z,8.40
2019-03-28T22:09:43.482Z,8.40
2019-03-28T22:12:29.886Z,8.50
2019-03-28T22:15:15.202Z,8.50
2019-03-28T22:18:00.824Z,8.50
2019-03-28T22:20:45.987Z,8.60
2019-03-28T22:23:31.462Z,8.50
2019-03-28T22:26:16.507Z,8.60
2019-03-28T22:29:01.889Z,8.60
2019-03-28T22:31:47.579Z,8.60
2019-03-28T22:34:33.946Z,8.60
2019-03-28T22:37:20.061Z,8.60
2019-03-28T22:40:05.891Z,8.60
2019-03-28T22:42:51.053Z,8.60
2019-03-28T22:45:36.787Z,8.70
2019-03-28T22:48:22.366Z,8.70
2019-03-28T22:51:07.785Z,8.70
2019-03-28T22:53:52.982Z,8.70
2019-03-28T22:56:38.337Z,8.70
2019-03-28T22:59:23.991Z,8.70
2019-03-28T23:02:09.502Z,8.70
2019-03-28T23:04:54.639Z,8.70
2019-03-28T23:07:40.899Z,8.70
2019-03-28T23:10:26.662Z,8.70
2019-03-28T23:13:12.420Z,8.80
2019-03-28T23:15:58.158Z,8.70
2019-03-28T23:18:43.802Z,8.80
2019-03-28T23:21:29.710Z,8.80
2019-03-28T23:24:15.054Z,8.70
2019-03-28T23:27:00.981Z,8.70
2019-03-28T23:29:47.330Z,8.70
2019-03-28T23:32:32.719Z,8.70
2019-03-28T23:35:18.387Z,8.70
2019-03-28T23:38:03.798Z,8.60
2019-03-28T23:40:49.462Z,8.60
2019-03-28T23:43:35.847Z,8.50
2019-03-28T23:46:21.707Z,8.50
2019-03-28T23:49:07.310Z,8.50
2019-03-28T23:51:52.858Z,8.50
2019-03-28T23:54:38.647Z,8.40
2019-03-28T23:57:24.114Z,8.40
